sensor_id;sensor_type;location;lat;lon;timestamp;pressure;altitude;pressure_sealevel;temperature;humidity
10718;BME280;13513;42.700;23.124;2023-02-13T00:00:46;94548.41;;;-1.59;100.00
10718;BME280;13513;42.700;23.124;2023-02-13T00:03:17;94550.64;;;-1.69;100.00
10718;BME280;13513;42.700;23.124;2023-02-13T00:05:48;94546.13;;;-1.67;100.00
10718;BME280;13513;42.700;23.124;2023-02-13T00:08:20;94550.09;;;-1.88;100.00
10718;BME280;13513;42.700;23.124;2023-02-13T00:10:51;94552.35;;;-1.89;100.00
10718;BME280;13513;42.700;23.124;2023-02-13T00:13:20;94545.95;;;-1.85;100.00
10718;BME280;13513;42.700;23.124;2023-02-13T00:15:55;94550.13;;;-1.78;100.00
10718;BME280;13513;42.700;23.124;2023-02-13T00:18:26;94549.73;;;-1.74;100.00
10718;BME280;13513;42.700;23.124;2023-02-13T00:21:05;94547.55;;;-1.69;100.00
10718;BME280;13513;42.700;23.124;2023-02-13T00:23:37;94547.48;;;-1.73;100.00
10718;BME280;13513;42.700;23.124;2023-02-13T00:26:12;94552.61;;;-1.92;100.00
10718;BME280;13513;42.700;23.124;2023-02-13T00:28:44;94554.61;;;-1.90;100.00
10718;BME280;13513;42.700;23.124;2023-02-13T00:31:17;94552.66;;;-1.73;100.00
10718;BME280;13513;42.700;23.124;2023-02-13T00:33:48;94556.64;;;-1.59;100.00
10718;BME280;13513;42.700;23.124;2023-02-13T00:36:20;94555.69;;;-1.58;100.00
10718;BME280;13513;42.700;23.124;2023-02-13T00:38:54;94559.87;;;-1.52;100.00
10718;BME280;13513;42.700;23.124;2023-02-13T00:41:26;94562.17;;;-1.49;100.00
10718;BME280;13513;42.700;23.124;2023-02-13T00:43:56;94562.62;;;-1.44;100.00
10718;BME280;13513;42.700;23.124;2023-02-13T00:46:27;94559.06;;;-1.43;100.00
10718;BME280;13513;42.700;23.124;2023-02-13T00:48:58;94560.77;;;-1.38;100.00
10718;BME280;13513;42.700;23.124;2023-02-13T00:51:29;94565.42;;;-1.32;100.00
10718;BME280;13513;42.700;23.124;2023-02-13T00:53:58;94565.95;;;-1.38;100.00
10718;BME280;13513;42.700;23.124;2023-02-13T00:56:29;94568.19;;;-1.48;100.00
10718;BME280;13513;42.700;23.124;2023-02-13T00:59:00;94573.46;;;-1.35;100.00
10718;BME280;13513;42.700;23.124;2023-02-13T01:01:33;94571.61;;;-1.48;100.00
10718;BME280;13513;42.700;23.124;2023-02-13T01:04:04;94574.70;;;-1.63;100.00
10718;BME280;13513;42.700;23.124;2023-02-13T01:06:35;94572.97;;;-1.53;100.00
10718;BME280;13513;42.700;23.124;2023-02-13T01:09:06;94581.98;;;-1.48;100.00
10718;BME280;13513;42.700;23.124;2023-02-13T01:11:37;94584.08;;;-1.47;100.00
10718;BME280;13513;42.700;23.124;2023-02-13T01:14:07;94575.56;;;-1.53;100.00
10718;BME280;13513;42.700;23.124;2023-02-13T01:16:38;94572.55;;;-1.49;100.00
10718;BME280;13513;42.700;23.124;2023-02-13T01:19:10;94571.61;;;-1.48;100.00
10718;BME280;13513;42.700;23.124;2023-02-13T01:21:41;94573.98;;;-1.60;100.00
10718;BME280;13513;42.700;23.124;2023-02-13T01:24:12;94575.41;;;-1.61;100.00
10718;BME280;13513;42.700;23.124;2023-02-13T01:26:43;94581.33;;;-1.55;100.00
10718;BME280;13513;42.700;23.124;2023-02-13T01:29:14;94574.98;;;-1.57;100.00
10718;BME280;13513;42.700;23.124;2023-02-13T01:31:44;94573.41;;;-1.63;100.00
10718;BME280;13513;42.700;23.124;2023-02-13T01:34:15;94579.75;;;-1.62;100.00
10718;BME280;13513;42.700;23.124;2023-02-13T01:36:46;94573.82;;;-1.58;100.00
10718;BME280;13513;42.700;23.124;2023-02-13T01:39:17;94576.48;;;-1.54;100.00
10718;BME280;13513;42.700;23.124;2023-02-13T01:41:48;94572.47;;;-1.53;100.00
10718;BME280;13513;42.700;23.124;2023-02-13T01:44:52;94579.19;;;-1.50;100.00
10718;BME280;13513;42.700;23.124;2023-02-13T01:50:07;94586.94;;;-1.60;100.00
10718;BME280;13513;42.700;23.124;2023-02-13T01:52:37;94581.75;;;-1.60;100.00
10718;BME280;13513;42.700;23.124;2023-02-13T01:55:09;94584.32;;;-1.69;100.00
10718;BME280;13513;42.700;23.124;2023-02-13T01:57:41;94590.80;;;-1.69;100.00
10718;BME280;13513;42.700;23.124;2023-02-13T02:00:15;94592.63;;;-1.66;100.00
10718;BME280;13513;42.700;23.124;2023-02-13T02:02:49;94598.09;;;-1.59;100.00
10718;BME280;13513;42.700;23.124;2023-02-13T02:05:20;94596.91;;;-1.46;100.00
10718;BME280;13513;42.700;23.124;2023-02-13T02:07:53;94600.94;;;-1.38;100.00
10718;BME280;13513;42.700;23.124;2023-02-13T02:10:24;94590.64;;;-1.34;100.00
10718;BME280;13513;42.700;23.124;2023-02-13T02:13:04;94590.58;;;-1.38;100.00
10718;BME280;13513;42.700;23.124;2023-02-13T02:15:33;94599.19;;;-1.28;100.00
10718;BME280;13513;42.700;23.124;2023-02-13T02:18:18;94590.27;;;-1.54;100.00
10718;BME280;13513;42.700;23.124;2023-02-13T02:23:50;94596.11;;;-1.46;100.00
10718;BME280;13513;42.700;23.124;2023-02-13T02:32:21;94591.08;;;-1.87;100.00
10718;BME280;13513;42.700;23.124;2023-02-13T02:46:03;94596.64;;;-2.07;100.00
10718;BME280;13513;42.700;23.124;2023-02-13T02:48:43;94595.76;;;-2.11;100.00
10718;BME280;13513;42.700;23.124;2023-02-13T02:57:06;94609.09;;;-1.61;100.00
10718;BME280;13513;42.700;23.124;2023-02-13T02:59:37;94614.78;;;-1.67;100.00
10718;BME280;13513;42.700;23.124;2023-02-13T03:02:24;94614.14;;;-1.60;100.00
10718;BME280;13513;42.700;23.124;2023-02-13T03:05:19;94616.47;;;-1.47;100.00
10718;BME280;13513;42.700;23.124;2023-02-13T03:08:02;94615.40;;;-1.35;100.00
10718;BME280;13513;42.700;23.124;2023-02-13T03:10:35;94613.91;;;-1.28;100.00
10718;BME280;13513;42.700;23.124;2023-02-13T03:13:42;94612.09;;;-1.22;100.00
10718;BME280;13513;42.700;23.124;2023-02-13T03:16:17;94608.47;;;-1.25;100.00
10718;BME280;13513;42.700;23.124;2023-02-13T03:19:03;94618.59;;;-1.13;100.00
10718;BME280;13513;42.700;23.124;2023-02-13T03:21:56;94615.80;;;-1.06;100.00
10718;BME280;13513;42.700;23.124;2023-02-13T03:30:09;94607.67;;;-0.97;100.00
10718;BME280;13513;42.700;23.124;2023-02-13T03:41:39;94624.34;;;-1.34;100.00
10718;BME280;13513;42.700;23.124;2023-02-13T03:46:45;94621.51;;;-1.21;100.00
10718;BME280;13513;42.700;23.124;2023-02-13T03:49:30;94615.87;;;-1.11;100.00
10718;BME280;13513;42.700;23.124;2023-02-13T03:55:06;94611.83;;;-0.91;100.00
10718;BME280;13513;42.700;23.124;2023-02-13T03:57:56;94615.50;;;-1.12;100.00
10718;BME280;13513;42.700;23.124;2023-02-13T04:00:43;94613.27;;;-1.11;100.00
10718;BME280;13513;42.700;23.124;2023-02-13T04:03:32;94617.30;;;-1.03;100.00
10718;BME280;13513;42.700;23.124;2023-02-13T04:06:10;94610.88;;;-1.09;100.00
10718;BME280;13513;42.700;23.124;2023-02-13T04:08:40;94610.61;;;-1.15;100.00
10718;BME280;13513;42.700;23.124;2023-02-13T04:13:55;94617.84;;;-1.09;100.00
10718;BME280;13513;42.700;23.124;2023-02-13T04:16:30;94609.93;;;-0.98;100.00
10718;BME280;13513;42.700;23.124;2023-02-13T04:19:01;94623.16;;;-1.01;100.00
10718;BME280;13513;42.700;23.124;2023-02-13T04:21:34;94621.60;;;-0.98;100.00
10718;BME280;13513;42.700;23.124;2023-02-13T04:24:07;94623.30;;;-0.93;100.00
10718;BME280;13513;42.700;23.124;2023-02-13T04:26:39;94629.19;;;-0.91;100.00
10718;BME280;13513;42.700;23.124;2023-02-13T04:29:09;94623.17;;;-0.92;100.00
10718;BME280;13513;42.700;23.124;2023-02-13T04:31:39;94624.33;;;-0.90;100.00
10718;BME280;13513;42.700;23.124;2023-02-13T04:34:13;94626.39;;;-0.94;100.00
10718;BME280;13513;42.700;23.124;2023-02-13T04:36:44;94625.83;;;-0.97;100.00
10718;BME280;13513;42.700;23.124;2023-02-13T04:39:14;94628.34;;;-1.01;100.00
10718;BME280;13513;42.700;23.124;2023-02-13T04:41:47;94627.82;;;-0.95;100.00
10718;BME280;13513;42.700;23.124;2023-02-13T04:44:18;94624.52;;;-1.07;100.00
10718;BME280;13513;42.700;23.124;2023-02-13T04:46:49;94619.64;;;-1.00;100.00
10718;BME280;13513;42.700;23.124;2023-02-13T04:49:19;94620.04;;;-0.95;100.00
10718;BME280;13513;42.700;23.124;2023-02-13T04:51:50;94620.30;;;-1.08;100.00
10718;BME280;13513;42.700;23.124;2023-02-13T04:54:21;94615.17;;;-1.04;100.00
10718;BME280;13513;42.700;23.124;2023-02-13T04:56:51;94613.28;;;-1.02;100.00
10718;BME280;13513;42.700;23.124;2023-02-13T04:59:22;94610.27;;;-0.97;100.00
10718;BME280;13513;42.700;23.124;2023-02-13T05:01:53;94616.48;;;-1.04;100.00
10718;BME280;13513;42.700;23.124;2023-02-13T05:04:24;94621.66;;;-1.04;100.00
10718;BME280;13513;42.700;23.124;2023-02-13T05:06:55;94627.95;;;-0.97;100.00
10718;BME280;13513;42.700;23.124;2023-02-13T05:09:25;94632.05;;;-0.94;100.00
10718;BME280;13513;42.700;23.124;2023-02-13T05:11:54;94635.54;;;-0.90;100.00
10718;BME280;13513;42.700;23.124;2023-02-13T05:14:26;94642.69;;;-0.88;100.00
10718;BME280;13513;42.700;23.124;2023-02-13T05:16:57;94643.05;;;-0.87;100.00
10718;BME280;13513;42.700;23.124;2023-02-13T05:19:28;94639.57;;;-0.82;100.00
10718;BME280;13513;42.700;23.124;2023-02-13T05:21:59;94634.38;;;-0.82;100.00
10718;BME280;13513;42.700;23.124;2023-02-13T05:24:46;94637.77;;;-0.81;100.00
10718;BME280;13513;42.700;23.124;2023-02-13T05:27:17;94641.73;;;-0.77;100.00
10718;BME280;13513;42.700;23.124;2023-02-13T05:29:47;94644.13;;;-0.70;100.00
10718;BME280;13513;42.700;23.124;2023-02-13T05:32:18;94635.87;;;-0.70;100.00
10718;BME280;13513;42.700;23.124;2023-02-13T05:34:49;94643.27;;;-0.65;100.00
10718;BME280;13513;42.700;23.124;2023-02-13T05:37:20;94646.79;;;-0.66;100.00
10718;BME280;13513;42.700;23.124;2023-02-13T05:39:50;94649.45;;;-0.62;100.00
10718;BME280;13513;42.700;23.124;2023-02-13T05:42:20;94650.02;;;-0.59;100.00
10718;BME280;13513;42.700;23.124;2023-02-13T05:44:50;94651.64;;;-0.58;100.00
10718;BME280;13513;42.700;23.124;2023-02-13T05:47:21;94651.77;;;-0.50;100.00
10718;BME280;13513;42.700;23.124;2023-02-13T05:49:52;94652.34;;;-0.46;100.00
10718;BME280;13513;42.700;23.124;2023-02-13T05:52:22;94652.53;;;-0.34;100.00
10718;BME280;13513;42.700;23.124;2023-02-13T05:54:54;94654.61;;;-0.24;100.00
10718;BME280;13513;42.700;23.124;2023-02-13T05:57:25;94662.59;;;-0.22;100.00
10718;BME280;13513;42.700;23.124;2023-02-13T05:59:56;94661.86;;;-0.18;100.00
10718;BME280;13513;42.700;23.124;2023-02-13T06:02:27;94666.55;;;-0.18;100.00
10718;BME280;13513;42.700;23.124;2023-02-13T06:04:58;94659.44;;;-0.06;100.00
10718;BME280;13513;42.700;23.124;2023-02-13T06:07:29;94665.58;;;0.03;100.00
10718;BME280;13513;42.700;23.124;2023-02-13T06:09:58;94662.02;;;0.03;100.00
10718;BME280;13513;42.700;23.124;2023-02-13T06:12:29;94666.24;;;0.04;100.00
10718;BME280;13513;42.700;23.124;2023-02-13T06:15:00;94669.45;;;0.12;100.00
10718;BME280;13513;42.700;23.124;2023-02-13T06:17:31;94668.82;;;0.14;100.00
10718;BME280;13513;42.700;23.124;2023-02-13T06:20:02;94672.63;;;0.20;100.00
10718;BME280;13513;42.700;23.124;2023-02-13T06:22:33;94675.26;;;0.33;100.00
10718;BME280;13513;42.700;23.124;2023-02-13T06:25:05;94681.20;;;0.39;100.00
10718;BME280;13513;42.700;23.124;2023-02-13T06:27:35;94670.91;;;0.47;100.00
10718;BME280;13513;42.700;23.124;2023-02-13T06:30:09;94679.00;;;0.58;100.00
10718;BME280;13513;42.700;23.124;2023-02-13T06:32:41;94683.23;;;0.59;100.00
10718;BME280;13513;42.700;23.124;2023-02-13T06:35:14;94681.56;;;0.67;100.00
10718;BME280;13513;42.700;23.124;2023-02-13T06:37:44;94684.02;;;0.82;100.00
10718;BME280;13513;42.700;23.124;2023-02-13T06:40:16;94682.22;;;0.96;100.00
10718;BME280;13513;42.700;23.124;2023-02-13T06:42:47;94688.48;;;1.03;100.00
10718;BME280;13513;42.700;23.124;2023-02-13T06:45:18;94687.16;;;1.17;100.00
10718;BME280;13513;42.700;23.124;2023-02-13T06:47:49;94683.16;;;1.22;100.00
10718;BME280;13513;42.700;23.124;2023-02-13T06:50:20;94688.91;;;1.26;100.00
10718;BME280;13513;42.700;23.124;2023-02-13T06:52:52;94691.16;;;1.25;100.00
10718;BME280;13513;42.700;23.124;2023-02-13T06:55:22;94695.83;;;1.35;100.00
10718;BME280;13513;42.700;23.124;2023-02-13T06:57:53;94690.01;;;1.41;100.00
10718;BME280;13513;42.700;23.124;2023-02-13T07:00:23;94690.95;;;1.36;100.00
10718;BME280;13513;42.700;23.124;2023-02-13T07:02:54;94690.70;;;1.43;100.00
10718;BME280;13513;42.700;23.124;2023-02-13T07:05:26;94688.59;;;1.46;100.00
10718;BME280;13513;42.700;23.124;2023-02-13T07:07:57;94684.33;;;1.59;100.00
10718;BME280;13513;42.700;23.124;2023-02-13T07:10:28;94685.16;;;1.59;100.00
10718;BME280;13513;42.700;23.124;2023-02-13T07:12:59;94687.87;;;1.71;100.00
10718;BME280;13513;42.700;23.124;2023-02-13T07:15:30;94687.11;;;1.79;100.00
10718;BME280;13513;42.700;23.124;2023-02-13T07:18:00;94679.14;;;1.80;100.00
10718;BME280;13513;42.700;23.124;2023-02-13T07:20:32;94684.23;;;1.86;100.00
10718;BME280;13513;42.700;23.124;2023-02-13T07:23:04;94686.41;;;1.90;100.00
10718;BME280;13513;42.700;23.124;2023-02-13T07:25:35;94689.22;;;1.97;100.00
10718;BME280;13513;42.700;23.124;2023-02-13T07:28:06;94692.69;;;2.01;100.00
10718;BME280;13513;42.700;23.124;2023-02-13T07:30:36;94694.22;;;2.12;100.00
10718;BME280;13513;42.700;23.124;2023-02-13T07:33:08;94691.20;;;2.20;100.00
10718;BME280;13513;42.700;23.124;2023-02-13T07:35:39;94696.20;;;2.18;100.00
10718;BME280;13513;42.700;23.124;2023-02-13T07:38:10;94692.34;;;2.22;100.00
10718;BME280;13513;42.700;23.124;2023-02-13T07:40:41;94695.16;;;2.28;100.00
10718;BME280;13513;42.700;23.124;2023-02-13T07:43:13;94690.97;;;2.35;100.00
10718;BME280;13513;42.700;23.124;2023-02-13T07:45:43;94694.14;;;2.51;100.00
10718;BME280;13513;42.700;23.124;2023-02-13T07:48:14;94696.56;;;2.44;100.00
10718;BME280;13513;42.700;23.124;2023-02-13T07:50:45;94694.30;;;2.49;100.00
10718;BME280;13513;42.700;23.124;2023-02-13T07:53:16;94695.55;;;2.71;100.00
10718;BME280;13513;42.700;23.124;2023-02-13T07:55:47;94694.19;;;2.92;100.00
10718;BME280;13513;42.700;23.124;2023-02-13T07:58:18;94691.80;;;3.03;100.00
10718;BME280;13513;42.700;23.124;2023-02-13T08:00:48;94693.47;;;3.16;100.00
10718;BME280;13513;42.700;23.124;2023-02-13T08:03:19;94690.73;;;3.29;100.00
10718;BME280;13513;42.700;23.124;2023-02-13T08:05:50;94694.69;;;3.41;100.00
10718;BME280;13513;42.700;23.124;2023-02-13T08:08:21;94697.84;;;3.61;99.84
10718;BME280;13513;42.700;23.124;2023-02-13T08:10:52;94696.23;;;3.72;99.06
10718;BME280;13513;42.700;23.124;2023-02-13T08:13:39;94705.17;;;3.61;98.58
10718;BME280;13513;42.700;23.124;2023-02-13T08:16:10;94695.88;;;3.79;96.16
10718;BME280;13513;42.700;23.124;2023-02-13T08:18:41;94695.56;;;3.70;95.56
10718;BME280;13513;42.700;23.124;2023-02-13T08:21:11;94691.64;;;3.70;96.01
10718;BME280;13513;42.700;23.124;2023-02-13T08:23:42;94698.17;;;3.78;95.81
10718;BME280;13513;42.700;23.124;2023-02-13T08:26:13;94692.80;;;3.99;94.82
10718;BME280;13513;42.700;23.124;2023-02-13T08:28:44;94691.65;;;4.06;94.22
10718;BME280;13513;42.700;23.124;2023-02-13T08:31:14;94690.34;;;4.14;94.35
10718;BME280;13513;42.700;23.124;2023-02-13T08:33:45;94693.11;;;4.08;94.16
10718;BME280;13513;42.700;23.124;2023-02-13T08:36:16;94692.16;;;3.97;93.75
10718;BME280;13513;42.700;23.124;2023-02-13T08:38:48;94693.27;;;3.83;93.90
10718;BME280;13513;42.700;23.124;2023-02-13T08:41:19;94691.02;;;4.00;92.75
10718;BME280;13513;42.700;23.124;2023-02-13T08:43:52;94683.63;;;4.23;90.75
10718;BME280;13513;42.700;23.124;2023-02-13T08:46:25;94687.04;;;4.48;89.88
10718;BME280;13513;42.700;23.124;2023-02-13T08:48:56;94689.19;;;4.45;90.54
10718;BME280;13513;42.700;23.124;2023-02-13T08:51:26;94689.19;;;4.45;90.54
10718;BME280;13513;42.700;23.124;2023-02-13T08:53:57;94694.23;;;4.54;89.32
10718;BME280;13513;42.700;23.124;2023-02-13T08:56:27;94694.23;;;4.54;89.32
10718;BME280;13513;42.700;23.124;2023-02-13T08:58:57;94692.42;;;4.51;89.84
10718;BME280;13513;42.700;23.124;2023-02-13T09:01:28;94692.42;;;4.51;89.84
10718;BME280;13513;42.700;23.124;2023-02-13T09:03:59;94690.36;;;4.26;89.75
10718;BME280;13513;42.700;23.124;2023-02-13T09:06:29;94689.84;;;4.30;90.07
10718;BME280;13513;42.700;23.124;2023-02-13T09:08:59;94687.67;;;4.62;89.71
10718;BME280;13513;42.700;23.124;2023-02-13T09:11:32;94687.67;;;4.62;89.71
10718;BME280;13513;42.700;23.124;2023-02-13T09:14:02;94694.13;;;4.94;87.84
10718;BME280;13513;42.700;23.124;2023-02-13T09:16:32;94694.28;;;4.93;85.92
10718;BME280;13513;42.700;23.124;2023-02-13T09:19:03;94690.54;;;4.87;84.95
10718;BME280;13513;42.700;23.124;2023-02-13T09:21:34;94688.47;;;5.17;85.00
10718;BME280;13513;42.700;23.124;2023-02-13T09:24:06;94683.52;;;5.30;84.77
10718;BME280;13513;42.700;23.124;2023-02-13T09:26:38;94690.30;;;5.47;84.36
10718;BME280;13513;42.700;23.124;2023-02-13T09:29:09;94689.37;;;5.67;82.32
10718;BME280;13513;42.700;23.124;2023-02-13T09:31:40;94684.36;;;5.80;81.75
10718;BME280;13513;42.700;23.124;2023-02-13T09:34:11;94688.98;;;5.74;78.40
10718;BME280;13513;42.700;23.124;2023-02-13T09:36:42;94688.33;;;5.76;79.96
10718;BME280;13513;42.700;23.124;2023-02-13T09:39:13;94683.03;;;5.88;79.87
10718;BME280;13513;42.700;23.124;2023-02-13T09:41:46;94685.36;;;5.79;79.71
10718;BME280;13513;42.700;23.124;2023-02-13T09:44:27;94682.35;;;6.12;78.79
10718;BME280;13513;42.700;23.124;2023-02-13T09:49:58;94674.41;;;6.39;76.54
10718;BME280;13513;42.700;23.124;2023-02-13T09:52:31;94673.39;;;6.44;74.35
10718;BME280;13513;42.700;23.124;2023-02-13T09:54:59;94677.30;;;6.48;73.80
10718;BME280;13513;42.700;23.124;2023-02-13T09:58:00;94672.16;;;6.32;73.17
10718;BME280;13513;42.700;23.124;2023-02-13T10:00:28;94667.44;;;6.31;75.76
10718;BME280;13513;42.700;23.124;2023-02-13T10:06:04;94651.29;;;7.25;72.10
10718;BME280;13513;42.700;23.124;2023-02-13T10:08:54;94653.81;;;7.33;65.66
10718;BME280;13513;42.700;23.124;2023-02-13T10:11:50;94645.69;;;7.39;68.93
10718;BME280;13513;42.700;23.124;2023-02-13T10:17:09;94630.84;;;7.98;62.65
10718;BME280;13513;42.700;23.124;2023-02-13T10:19:42;94633.99;;;7.98;62.74
10718;BME280;13513;42.700;23.124;2023-02-13T10:22:28;94624.69;;;7.91;62.97
10718;BME280;13513;42.700;23.124;2023-02-13T10:25:05;94623.64;;;8.07;63.61
10718;BME280;13513;42.700;23.124;2023-02-13T10:27:38;94623.14;;;8.28;61.80
10718;BME280;13513;42.700;23.124;2023-02-13T10:33:10;94614.89;;;11.07;50.55
10718;BME280;13513;42.700;23.124;2023-02-13T10:38:31;94600.23;;;11.68;45.07
10718;BME280;13513;42.700;23.124;2023-02-13T10:41:53;94602.51;;;11.64;45.89
10718;BME280;13513;42.700;23.124;2023-02-13T10:44:11;94592.91;;;12.32;43.76
10718;BME280;13513;42.700;23.124;2023-02-13T10:46:46;94577.05;;;11.94;43.94
10718;BME280;13513;42.700;23.124;2023-02-13T10:49:37;94586.44;;;10.96;45.92
10718;BME280;13513;42.700;23.124;2023-02-13T11:00:37;94570.23;;;8.92;51.36
10718;BME280;13513;42.700;23.124;2023-02-13T11:03:27;94563.62;;;8.13;52.95
10718;BME280;13513;42.700;23.124;2023-02-13T11:05:43;94562.12;;;8.14;54.94
10718;BME280;13513;42.700;23.124;2023-02-13T11:08:32;94562.53;;;8.11;52.96
10718;BME280;13513;42.700;23.124;2023-02-13T11:11:01;94560.47;;;9.09;50.40
10718;BME280;13513;42.700;23.124;2023-02-13T11:13:32;94558.43;;;9.35;51.40
10718;BME280;13513;42.700;23.124;2023-02-13T11:16:07;94553.47;;;9.85;49.04
10718;BME280;13513;42.700;23.124;2023-02-13T11:18:42;94553.70;;;9.97;47.64
10718;BME280;13513;42.700;23.124;2023-02-13T11:21:22;94550.49;;;10.69;45.74
10718;BME280;13513;42.700;23.124;2023-02-13T11:23:54;94537.91;;;11.43;44.43
10718;BME280;13513;42.700;23.124;2023-02-13T11:26:35;94530.45;;;11.87;44.44
10718;BME280;13513;42.700;23.124;2023-02-13T11:29:15;94523.05;;;13.14;41.02
10718;BME280;13513;42.700;23.124;2023-02-13T11:31:38;94526.48;;;13.42;39.32
10718;BME280;13513;42.700;23.124;2023-02-13T11:34:25;94519.22;;;13.58;37.95
10718;BME280;13513;42.700;23.124;2023-02-13T11:37:19;94515.88;;;15.16;36.18
10718;BME280;13513;42.700;23.124;2023-02-13T11:39:49;94506.16;;;16.69;33.56
10718;BME280;13513;42.700;23.124;2023-02-13T11:42:35;94502.50;;;18.33;29.79
10718;BME280;13513;42.700;23.124;2023-02-13T11:45:20;94494.61;;;17.90;29.49
10718;BME280;13513;42.700;23.124;2023-02-13T11:47:51;94489.56;;;18.52;29.52
10718;BME280;13513;42.700;23.124;2023-02-13T11:50:33;94487.06;;;18.74;28.32
10718;BME280;13513;42.700;23.124;2023-02-13T11:53:28;94484.09;;;19.12;27.98
10718;BME280;13513;42.700;23.124;2023-02-13T11:56:05;94477.20;;;19.29;27.81
10718;BME280;13513;42.700;23.124;2023-02-13T11:58:34;94464.01;;;19.92;27.16
10718;BME280;13513;42.700;23.124;2023-02-13T12:04:17;94459.66;;;18.60;27.83
10718;BME280;13513;42.700;23.124;2023-02-13T12:07:00;94459.47;;;18.74;28.78
10718;BME280;13513;42.700;23.124;2023-02-13T12:09:30;94455.51;;;19.33;28.07
10718;BME280;13513;42.700;23.124;2023-02-13T12:12:01;94444.44;;;19.96;27.34
10718;BME280;13513;42.700;23.124;2023-02-13T12:14:39;94446.56;;;19.94;26.93
10718;BME280;13513;42.700;23.124;2023-02-13T12:17:21;94451.30;;;18.54;28.39
10718;BME280;13513;42.700;23.124;2023-02-13T12:19:52;94444.75;;;17.79;29.54
10718;BME280;13513;42.700;23.124;2023-02-13T12:22:50;94439.33;;;17.69;29.96
10718;BME280;13513;42.700;23.124;2023-02-13T12:25:25;94444.66;;;17.96;30.06
10718;BME280;13513;42.700;23.124;2023-02-13T12:28:16;94436.75;;;18.08;30.39
10718;BME280;13513;42.700;23.124;2023-02-13T12:31:15;94433.52;;;17.08;30.34
10718;BME280;13513;42.700;23.124;2023-02-13T12:39:36;94432.33;;;13.26;35.56
10718;BME280;13513;42.700;23.124;2023-02-13T12:42:25;94437.23;;;12.30;37.11
10718;BME280;13513;42.700;23.124;2023-02-13T12:45:16;94430.00;;;11.61;38.03
10718;BME280;13513;42.700;23.124;2023-02-13T12:48:23;94423.45;;;11.01;39.17
10718;BME280;13513;42.700;23.124;2023-02-13T12:59:15;94411.61;;;9.96;43.48
10718;BME280;13513;42.700;23.124;2023-02-13T13:02:06;94415.09;;;9.51;44.29
10718;BME280;13513;42.700;23.124;2023-02-13T13:04:40;94410.12;;;9.65;44.86
10718;BME280;13513;42.700;23.124;2023-02-13T13:07:30;94403.41;;;9.50;44.37
10718;BME280;13513;42.700;23.124;2023-02-13T13:13:34;94401.91;;;9.32;45.03
10718;BME280;13513;42.700;23.124;2023-02-13T13:21:34;94397.53;;;8.66;47.90
10718;BME280;13513;42.700;23.124;2023-02-13T13:26:55;94389.08;;;8.96;47.05
10718;BME280;13513;42.700;23.124;2023-02-13T13:29:41;94380.88;;;8.95;46.94
10718;BME280;13513;42.700;23.124;2023-02-13T13:32:10;94385.22;;;8.92;47.37
10718;BME280;13513;42.700;23.124;2023-02-13T13:34:40;94385.75;;;8.98;47.13
10718;BME280;13513;42.700;23.124;2023-02-13T13:43:02;94388.35;;;8.92;47.10
10718;BME280;13513;42.700;23.124;2023-02-13T13:51:07;94385.05;;;9.39;46.37
10718;BME280;13513;42.700;23.124;2023-02-13T13:54:17;94381.31;;;9.51;45.75
10718;BME280;13513;42.700;23.124;2023-02-13T13:56:12;94387.56;;;9.76;45.65
10718;BME280;13513;42.700;23.124;2023-02-13T13:58:46;94383.03;;;10.22;45.00
10718;BME280;13513;42.700;23.124;2023-02-13T14:01:29;94383.15;;;10.46;42.70
10718;BME280;13513;42.700;23.124;2023-02-13T14:04:01;94379.36;;;10.73;42.79
10718;BME280;13513;42.700;23.124;2023-02-13T14:09:36;94375.59;;;11.25;41.79
10718;BME280;13513;42.700;23.124;2023-02-13T14:15:00;94375.17;;;11.77;40.40
10718;BME280;13513;42.700;23.124;2023-02-13T14:17:50;94376.08;;;11.89;40.36
10718;BME280;13513;42.700;23.124;2023-02-13T14:20:59;94377.19;;;11.81;39.77
10718;BME280;13513;42.700;23.124;2023-02-13T14:26:24;94360.29;;;12.37;38.85
10718;BME280;13513;42.700;23.124;2023-02-13T14:28:54;94363.98;;;12.54;37.97
10718;BME280;13513;42.700;23.124;2023-02-13T14:31:35;94362.43;;;12.19;38.43
10718;BME280;13513;42.700;23.124;2023-02-13T14:34:07;94361.47;;;12.41;38.48
10718;BME280;13513;42.700;23.124;2023-02-13T14:36:39;94360.41;;;12.78;38.02
10718;BME280;13513;42.700;23.124;2023-02-13T14:39:23;94362.70;;;13.13;37.46
10718;BME280;13513;42.700;23.124;2023-02-13T14:42:01;94357.22;;;13.17;36.87
10718;BME280;13513;42.700;23.124;2023-02-13T14:44:43;94363.45;;;12.63;37.49
10718;BME280;13513;42.700;23.124;2023-02-13T14:47:25;94361.91;;;12.65;37.38
10718;BME280;13513;42.700;23.124;2023-02-13T14:49:47;94365.73;;;13.07;36.40
10718;BME280;13513;42.700;23.124;2023-02-13T14:52:24;94361.92;;;13.44;35.93
10718;BME280;13513;42.700;23.124;2023-02-13T14:54:54;94366.02;;;13.08;36.87
10718;BME280;13513;42.700;23.124;2023-02-13T14:57:28;94357.61;;;13.32;36.39
10718;BME280;13513;42.700;23.124;2023-02-13T15:00:02;94355.54;;;12.84;37.02
10718;BME280;13513;42.700;23.124;2023-02-13T15:02:36;94358.82;;;12.88;36.77
10718;BME280;13513;42.700;23.124;2023-02-13T15:05:11;94356.23;;;12.91;37.03
10718;BME280;13513;42.700;23.124;2023-02-13T15:07:49;94359.42;;;12.99;36.93
10718;BME280;13513;42.700;23.124;2023-02-13T15:10:52;94357.12;;;12.46;37.54
10718;BME280;13513;42.700;23.124;2023-02-13T15:13:25;94356.91;;;12.57;37.63
10718;BME280;13513;42.700;23.124;2023-02-13T15:16:04;94359.73;;;12.73;37.29
10718;BME280;13513;42.700;23.124;2023-02-13T15:18:39;94359.55;;;12.66;37.25
10718;BME280;13513;42.700;23.124;2023-02-13T15:21:14;94355.16;;;12.42;37.43
10718;BME280;13513;42.700;23.124;2023-02-13T15:23:53;94360.22;;;12.07;37.97
10718;BME280;13513;42.700;23.124;2023-02-13T15:26:24;94357.92;;;11.59;38.62
10718;BME280;13513;42.700;23.124;2023-02-13T15:29:17;94363.17;;;10.79;40.00